Absecon City, New Jersey
Current Conditions -  °F | °C
As of 11:54 AM on Thursday 18 Dec 2014 (Local Time) from KACY Reporting Station
Clear Clear  
Wind Chill: -1°   Ceiling: Unl
Heat Index:   Visibility: 10mi
Dew Point: -6°   Wind: 22mph
Humidity: 49%   Direction: 280°W
Pressure: 30.03"   Gusts: 30mph
Location:  39.4315°N, 74.5003°W
Report Text: KACY 181654Z 28019G26KT 10SM CLR 04/M06 A3003 RMK AO2 PK WND 29026/1654 SLP169 T00441056
Loading
Personal Weather Stations






























Interactive Weather Map New forecast layout! Learn more

10-Day Weather Forecast

Advertisements
Track Severe Weather on mobile